createdAt,value
2018-05-17T00:00:19.513Z,17.15
2018-05-17T00:01:19.552Z,17.05
2018-05-17T00:02:19.831Z,17.11
2018-05-17T00:03:19.869Z,17.02
2018-05-17T00:04:19.862Z,17.02
2018-05-17T00:05:19.899Z,17.04
2018-05-17T00:06:19.901Z,17.02
2018-05-17T00:07:19.920Z,17.04
2018-05-17T00:08:19.672Z,17.09
2018-05-17T00:09:19.427Z,17.05
2018-05-17T00:10:20.018Z,17.05
2018-05-17T00:11:19.759Z,16.99
2018-05-17T00:12:20.038Z,17.06
2018-05-17T00:13:19.785Z,17.06
2018-05-17T00:14:20.083Z,17.06
2018-05-17T00:15:20.082Z,17.15
2018-05-17T00:16:20.103Z,17.11
2018-05-17T00:17:20.166Z,16.99
2018-05-17T00:18:20.154Z,16.97
2018-05-17T00:19:20.192Z,16.93
2018-05-17T00:20:20.245Z,17.05
2018-05-17T00:21:20.239Z,17.05
2018-05-17T00:22:19.971Z,17.01
2018-05-17T00:23:20.251Z,16.97
2018-05-17T00:24:20.512Z,17.06
2018-05-17T00:25:20.309Z,16.99
2018-05-17T00:26:20.320Z,16.99
2018-05-17T00:27:20.357Z,17.02
2018-05-17T00:28:20.382Z,16.96
2018-05-17T00:29:20.397Z,16.96
2018-05-17T00:30:20.390Z,16.89
2018-05-17T00:31:20.151Z,16.89
2018-05-17T00:32:20.186Z,16.99
2018-05-17T00:33:20.458Z,16.91
2018-05-17T00:34:20.481Z,16.93
2018-05-17T00:35:20.620Z,16.87
2018-05-17T00:36:20.561Z,16.87
2018-05-17T00:37:20.557Z,16.91
2018-05-17T00:38:20.307Z,16.89
2018-05-17T00:39:20.608Z,16.86
2018-05-17T00:40:20.615Z,16.86
2018-05-17T00:41:20.336Z,16.79
2018-05-17T00:42:20.656Z,16.9
2018-05-17T00:43:20.686Z,16.84
2018-05-17T00:44:20.666Z,16.87
2018-05-17T00:45:20.703Z,16.76
2018-05-17T00:46:20.734Z,16.86
2018-05-17T00:47:20.744Z,16.86
2018-05-17T00:48:20.826Z,16.87
2018-05-17T00:49:20.796Z,16.84
2018-05-17T00:50:20.808Z,16.84
2018-05-17T00:51:20.547Z,16.79
2018-05-17T00:52:21.217Z,16.83
2018-05-17T00:53:20.866Z,16.75
2018-05-17T00:54:20.361Z,16.76
2018-05-17T00:55:20.891Z,16.79
2018-05-17T00:56:20.911Z,16.81
2018-05-17T00:57:20.942Z,16.83
2018-05-17T00:58:20.712Z,16.79
2018-05-17T00:59:20.714Z,16.79
2018-05-17T01:00:20.987Z,16.78
2018-05-17T01:01:21.041Z,16.76
2018-05-17T01:02:20.761Z,16.74
2018-05-17T01:03:21.057Z,16.75
2018-05-17T01:04:21.080Z,16.75
2018-05-17T01:05:21.106Z,16.69
2018-05-17T01:06:21.136Z,16.74
2018-05-17T01:07:21.155Z,16.68
2018-05-17T01:08:21.165Z,16.76
2018-05-17T01:09:21.175Z,16.75
2018-05-17T01:10:20.939Z,16.74
2018-05-17T01:11:21.280Z,16.66
2018-05-17T01:12:21.231Z,16.61
2018-05-17T01:13:21.268Z,16.75
2018-05-17T01:14:21.017Z,16.61
2018-05-17T01:15:21.246Z,16.66
2018-05-17T01:16:21.309Z,16.61
2018-05-17T01:17:21.097Z,16.61
2018-05-17T01:18:21.380Z,16.69
2018-05-17T01:19:21.115Z,16.68
2018-05-17T01:20:21.146Z,16.68
2018-05-17T01:21:21.431Z,16.69
2018-05-17T01:22:21.192Z,16.68
2018-05-17T01:23:21.475Z,16.64
2018-05-17T01:24:21.475Z,16.66
2018-05-17T01:25:21.515Z,16.61
2018-05-17T01:26:21.549Z,16.64
2018-05-17T01:27:21.559Z,16.64
2018-05-17T01:28:21.562Z,16.61
2018-05-17T01:29:21.568Z,16.6
2018-05-17T01:30:21.589Z,16.65
2018-05-17T01:31:21.352Z,16.61
2018-05-17T01:32:21.637Z,16.51
2018-05-17T01:33:21.660Z,16.64
2018-05-17T01:34:21.664Z,16.57
2018-05-17T01:35:21.691Z,16.54
2018-05-17T01:36:21.451Z,16.66
2018-05-17T01:37:21.700Z,16.65
2018-05-17T01:38:21.504Z,16.53
2018-05-17T01:39:21.513Z,16.54
2018-05-17T01:40:21.808Z,16.57
2018-05-17T01:41:21.832Z,16.57
2018-05-17T01:42:21.830Z,16.53
2018-05-17T01:43:21.613Z,16.61
2018-05-17T01:44:21.886Z,16.51
2018-05-17T01:45:21.975Z,16.46
2018-05-17T01:46:21.928Z,16.53
2018-05-17T01:47:21.943Z,16.54
2018-05-17T01:48:21.969Z,16.49
2018-05-17T01:49:21.987Z,16.5
2018-05-17T01:50:21.730Z,16.57
2018-05-17T01:51:21.739Z,16.56
2018-05-17T01:52:22.040Z,16.53
2018-05-17T01:53:21.807Z,16.46
2018-05-17T01:54:22.078Z,16.47
2018-05-17T01:55:21.826Z,16.47
2018-05-17T01:56:22.122Z,16.51
2018-05-17T01:57:21.880Z,16.54
2018-05-17T01:58:22.362Z,16.54
2018-05-17T01:59:22.126Z,16.41
2018-05-17T02:00:22.291Z,16.41
2018-05-17T02:01:22.206Z,16.54
2018-05-17T02:02:22.244Z,16.54
2018-05-17T02:03:22.005Z,16.49
2018-05-17T02:04:22.291Z,16.46
2018-05-17T02:05:22.036Z,16.49
2018-05-17T02:06:22.039Z,16.46
2018-05-17T02:07:22.096Z,16.47
2018-05-17T02:08:22.362Z,16.43
2018-05-17T02:09:22.126Z,16.5
2018-05-17T02:10:22.393Z,16.47
2018-05-17T02:11:22.454Z,16.47
2018-05-17T02:12:22.165Z,16.5
2018-05-17T02:13:22.459Z,16.5
2018-05-17T02:14:22.207Z,16.38
2018-05-17T02:15:22.495Z,16.43
2018-05-17T02:16:22.533Z,16.49
2018-05-17T02:17:22.548Z,16.41
2018-05-17T02:18:22.553Z,16.38
2018-05-17T02:19:22.473Z,16.39
2018-05-17T02:20:22.326Z,16.41
2018-05-17T02:21:22.622Z,16.39
2018-05-17T02:22:22.645Z,16.38
2018-05-17T02:23:22.404Z,16.39
2018-05-17T02:24:22.684Z,16.38
2018-05-17T02:25:22.683Z,16.42
2018-05-17T02:26:22.776Z,16.41
2018-05-17T02:27:22.725Z,16.41
2018-05-17T02:28:22.749Z,16.41
2018-05-17T02:29:22.787Z,16.41
2018-05-17T02:30:22.818Z,16.42
2018-05-17T02:31:22.816Z,16.41
2018-05-17T02:32:22.559Z,16.47
2018-05-17T02:33:22.568Z,16.35
2018-05-17T02:34:22.858Z,16.43
2018-05-17T02:35:22.609Z,16.43
2018-05-17T02:36:22.648Z,16.33
2018-05-17T02:37:22.922Z,16.36
2018-05-17T02:38:22.946Z,16.41
2018-05-17T02:39:22.975Z,16.36
2018-05-17T02:40:22.980Z,16.36
2018-05-17T02:41:22.790Z,16.41
2018-05-17T02:42:23.040Z,16.41
2018-05-17T02:43:22.816Z,16.32
2018-05-17T02:44:22.807Z,16.38
2018-05-17T02:45:23.088Z,16.36
2018-05-17T02:46:22.837Z,16.41
2018-05-17T02:47:23.137Z,16.31
2018-05-17T02:48:23.142Z,16.36
2018-05-17T02:49:23.331Z,16.38
2018-05-17T02:50:23.191Z,16.32
2018-05-17T02:51:23.225Z,16.36
2018-05-17T02:52:22.960Z,16.32
2018-05-17T02:53:22.975Z,16.32
2018-05-17T02:54:22.992Z,16.24
2018-05-17T02:55:23.023Z,16.29
2018-05-17T02:56:23.340Z,16.29
2018-05-17T02:57:23.332Z,16.24
2018-05-17T02:58:23.358Z,16.31
2018-05-17T02:59:22.826Z,16.28
2018-05-17T03:00:23.096Z,16.24
2018-05-17T03:01:23.133Z,16.32
2018-05-17T03:02:23.429Z,16.24
2018-05-17T03:03:23.187Z,16.28
2018-05-17T03:04:23.457Z,16.23
2018-05-17T03:05:23.193Z,16.23
2018-05-17T03:06:23.526Z,16.26
2018-05-17T03:07:23.251Z,16.26
2018-05-17T03:08:23.541Z,16.24
2018-05-17T03:09:23.580Z,16.28
2018-05-17T03:10:23.310Z,16.31
2018-05-17T03:11:23.662Z,16.17
2018-05-17T03:12:23.615Z,16.2
2018-05-17T03:13:23.624Z,16.26
2018-05-17T03:14:23.375Z,16.24
2018-05-17T03:15:23.698Z,16.17
2018-05-17T03:16:23.740Z,16.21
2018-05-17T03:17:23.735Z,16.26
2018-05-17T03:18:23.742Z,16.21
2018-05-17T03:19:23.210Z,16.29
2018-05-17T03:20:23.754Z,16.32
2018-05-17T03:21:23.534Z,16.26
2018-05-17T03:22:23.816Z,16.31
2018-05-17T03:23:23.555Z,16.29
2018-05-17T03:24:23.304Z,16.29
2018-05-17T03:25:23.625Z,16.29
2018-05-17T03:26:23.889Z,16.31
2018-05-17T03:27:23.909Z,16.28
2018-05-17T03:28:23.950Z,16.31
2018-05-17T03:29:23.949Z,16.28
2018-05-17T03:30:23.952Z,16.31
2018-05-17T03:31:23.985Z,16.26
2018-05-17T03:32:24.212Z,16.26
2018-05-17T03:33:23.761Z,16.23
2018-05-17T03:34:24.045Z,16.23
2018-05-17T03:35:24.070Z,16.26
2018-05-17T03:36:24.080Z,16.28
2018-05-17T03:37:23.832Z,16.28
2018-05-17T03:38:24.291Z,16.21
2018-05-17T03:39:24.127Z,16.21
2018-05-17T03:40:24.180Z,16.21
2018-05-17T03:41:24.173Z,16.26
2018-05-17T03:42:23.944Z,16.23
2018-05-17T03:43:24.234Z,16.28
2018-05-17T03:44:24.426Z,16.24
2018-05-17T03:45:24.284Z,16.26
2018-05-17T03:46:24.261Z,16.16
2018-05-17T03:47:24.044Z,16.28
2018-05-17T03:48:24.335Z,16.21
2018-05-17T03:49:24.063Z,16.26
2018-05-17T03:50:24.102Z,16.23
2018-05-17T03:51:24.094Z,16.28
2018-05-17T03:52:24.613Z,16.28
2018-05-17T03:53:24.420Z,16.26
2018-05-17T03:54:24.466Z,16.24
2018-05-17T03:55:24.461Z,16.17
2018-05-17T03:56:24.492Z,16.26
2018-05-17T03:57:24.518Z,16.2
2018-05-17T03:58:24.527Z,16.2
2018-05-17T03:59:24.559Z,16.23
2018-05-17T04:00:24.285Z,16.24
2018-05-17T04:01:24.437Z,16.24
2018-05-17T04:02:24.589Z,16.32
2018-05-17T04:03:24.628Z,16.28
2018-05-17T04:04:24.642Z,16.26
2018-05-17T04:05:24.640Z,16.26
2018-05-17T04:06:24.403Z,16.24
2018-05-17T04:07:24.440Z,16.26
2018-05-17T04:08:24.454Z,16.26
2018-05-17T04:09:24.742Z,16.31
2018-05-17T04:10:24.474Z,16.23
2018-05-17T04:11:24.495Z,16.24
2018-05-17T04:12:24.809Z,16.26
2018-05-17T04:13:24.523Z,16.31
2018-05-17T04:14:24.827Z,16.26
2018-05-17T04:15:24.895Z,16.28
2018-05-17T04:16:24.874Z,16.28
2018-05-17T04:17:25.089Z,16.28
2018-05-17T04:18:24.908Z,16.28
2018-05-17T04:19:24.662Z,16.31
2018-05-17T04:20:24.956Z,16.29
2018-05-17T04:21:24.966Z,16.26
2018-05-17T04:22:24.996Z,16.28
2018-05-17T04:23:25.018Z,16.31
2018-05-17T04:24:25.030Z,16.35
2018-05-17T04:25:25.034Z,16.24
2018-05-17T04:26:24.790Z,16.21
2018-05-17T04:27:25.062Z,16.28
2018-05-17T04:28:24.818Z,16.33
2018-05-17T04:29:24.598Z,16.36
2018-05-17T04:30:24.892Z,16.28
2018-05-17T04:31:25.201Z,16.33
2018-05-17T04:32:25.178Z,16.29
2018-05-17T04:33:25.185Z,16.29
2018-05-17T04:34:25.218Z,16.35
2018-05-17T04:35:24.960Z,16.28
2018-05-17T04:36:25.268Z,16.33
2018-05-17T04:37:25.008Z,16.31
2018-05-17T04:38:25.042Z,16.36
2018-05-17T04:39:25.297Z,16.29
2018-05-17T04:40:25.379Z,16.35
2018-05-17T04:41:25.093Z,16.33
2018-05-17T04:42:25.384Z,16.31
2018-05-17T04:43:25.110Z,16.39
2018-05-17T04:44:25.399Z,16.38
2018-05-17T04:45:25.161Z,16.33
2018-05-17T04:46:25.456Z,16.39
2018-05-17T04:47:25.455Z,16.41
2018-05-17T04:48:25.479Z,16.33
2018-05-17T04:49:25.496Z,16.33
2018-05-17T04:50:25.259Z,16.41
2018-05-17T04:51:25.278Z,16.36
2018-05-17T04:52:25.585Z,16.38
2018-05-17T04:53:25.600Z,16.39
2018-05-17T04:54:25.375Z,16.41
2018-05-17T04:55:25.362Z,16.39
2018-05-17T04:56:25.370Z,16.38
2018-05-17T04:57:25.681Z,16.38
2018-05-17T04:58:25.464Z,16.46
2018-05-17T04:59:25.765Z,16.41
2018-05-17T05:00:25.729Z,16.42
2018-05-17T05:01:25.209Z,16.47
2018-05-17T05:02:25.503Z,16.49
2018-05-17T05:03:25.529Z,16.53
2018-05-17T05:04:25.537Z,16.51
2018-05-17T05:05:25.567Z,16.53
2018-05-17T05:06:25.841Z,16.5
2018-05-17T05:07:25.855Z,16.46
2018-05-17T05:08:25.622Z,16.56
2018-05-17T05:09:25.472Z,16.5
2018-05-17T05:10:25.927Z,16.54
2018-05-17T05:11:25.922Z,16.58
2018-05-17T05:12:26.011Z,16.54
2018-05-17T05:13:25.716Z,16.49
2018-05-17T05:14:26.001Z,16.58
2018-05-17T05:15:26.025Z,16.54
2018-05-17T05:16:26.045Z,16.5
2018-05-17T05:17:26.064Z,16.53
2018-05-17T05:18:26.022Z,16.58
2018-05-17T05:19:26.100Z,16.54
2018-05-17T05:20:26.123Z,16.58
2018-05-17T05:22:30.573Z,16.56
2018-05-17T05:22:40.413Z,16.57
2018-05-17T05:23:40.416Z,16.6
2018-05-17T05:24:40.190Z,16.61
2018-05-17T05:25:40.487Z,16.54
2018-05-17T05:26:40.761Z,16.61
2018-05-17T05:27:40.844Z,16.57
2018-05-17T05:28:40.805Z,16.54
2018-05-17T05:29:40.821Z,16.6
2018-05-17T05:30:40.852Z,16.64
2018-05-17T05:31:41.126Z,16.6
2018-05-17T05:32:40.609Z,16.61
2018-05-17T05:33:40.880Z,16.61
2018-05-17T05:34:40.639Z,16.65
2018-05-17T05:35:40.950Z,16.61
2018-05-17T05:36:40.954Z,16.64
2018-05-17T05:37:41.368Z,16.61
2018-05-17T05:38:40.973Z,16.66
2018-05-17T05:39:40.741Z,16.72
2018-05-17T05:40:41.039Z,16.74
2018-05-17T05:41:40.771Z,16.75
2018-05-17T05:42:41.054Z,16.81
2018-05-17T05:43:41.072Z,16.83
2018-05-17T05:44:41.119Z,16.84
2018-05-17T05:45:40.859Z,16.86
2018-05-17T05:46:41.153Z,16.79
2018-05-17T05:47:40.903Z,16.87
2018-05-17T05:48:41.189Z,16.89
2018-05-17T05:49:41.080Z,16.87
2018-05-17T05:50:40.972Z,16.86
2018-05-17T05:51:41.252Z,16.94
2018-05-17T05:52:40.990Z,16.96
2018-05-17T05:53:41.012Z,16.99
2018-05-17T05:54:41.035Z,17.02
2018-05-17T05:55:41.329Z,16.96
2018-05-17T05:56:41.078Z,17.02
2018-05-17T05:57:41.102Z,16.96
2018-05-17T05:58:41.392Z,17.09
2018-05-17T05:59:41.405Z,16.97
2018-05-17T06:00:41.408Z,16.9
2018-05-17T06:01:41.452Z,16.96
2018-05-17T06:02:41.767Z,16.97
2018-05-17T06:03:41.474Z,16.97
2018-05-17T06:04:41.519Z,16.97
2018-05-17T06:05:41.527Z,16.96
2018-05-17T06:06:41.549Z,16.99
2018-05-17T06:07:41.579Z,16.99
2018-05-17T06:08:41.578Z,17.05
2018-05-17T06:09:41.583Z,16.99
2018-05-17T06:10:41.619Z,17.05
2018-05-17T06:11:41.640Z,16.96
2018-05-17T06:12:41.664Z,16.99
2018-05-17T06:13:41.664Z,16.94
2018-05-17T06:14:42.902Z,17.02
2018-05-17T06:15:41.724Z,16.99
2018-05-17T06:16:41.754Z,16.94
2018-05-17T06:17:41.780Z,16.96
2018-05-17T06:18:41.777Z,16.96
2018-05-17T06:19:41.804Z,16.99
2018-05-17T06:20:41.556Z,17.02
2018-05-17T06:21:41.564Z,17.01
2018-05-17T06:22:41.602Z,16.99
2018-05-17T06:23:41.947Z,17.02
2018-05-17T06:24:41.907Z,16.97
2018-05-17T06:25:41.660Z,17.05
2018-05-17T06:26:41.926Z,17.02
2018-05-17T06:27:41.697Z,16.87
2018-05-17T06:28:41.964Z,17.09
2018-05-17T06:29:41.988Z,17.05
2018-05-17T06:30:41.755Z,16.97
2018-05-17T06:31:41.789Z,16.93
2018-05-17T06:32:42.114Z,17.08
2018-05-17T06:33:41.803Z,16.93
2018-05-17T06:34:42.104Z,16.96
2018-05-17T06:35:42.116Z,17.02
2018-05-17T06:36:41.878Z,17.04
2018-05-17T06:37:42.343Z,17.02
2018-05-17T06:38:42.196Z,17.04
2018-05-17T06:39:42.196Z,17.06
2018-05-17T06:40:42.219Z,17.04
2018-05-17T06:41:41.949Z,17.05
2018-05-17T06:42:42.312Z,17.01
2018-05-17T06:43:42.273Z,17.02
2018-05-17T06:44:42.018Z,17.05
2018-05-17T06:45:42.054Z,17.05
2018-05-17T06:46:42.065Z,17.04
2018-05-17T06:47:42.354Z,17.08
2018-05-17T06:48:42.388Z,17.02
2018-05-17T06:49:42.388Z,17.01
2018-05-17T06:50:42.413Z,16.99
2018-05-17T06:51:42.170Z,17.06
2018-05-17T06:52:42.190Z,17.06
2018-05-17T06:53:42.208Z,17.01
2018-05-17T06:54:42.507Z,17.02
2018-05-17T06:55:42.537Z,17.06
2018-05-17T06:56:42.535Z,16.99
2018-05-17T06:57:42.020Z,16.99
2018-05-17T06:58:42.558Z,17.09
2018-05-17T06:59:42.591Z,17.04
2018-05-17T07:00:42.910Z,17.05
2018-05-17T07:01:42.639Z,17.05
2018-05-17T07:02:42.653Z,17.05
2018-05-17T07:03:42.691Z,17.08
2018-05-17T07:04:42.679Z,17.05
2018-05-17T07:05:42.735Z,17.04
2018-05-17T07:06:42.722Z,17.02
2018-05-17T07:07:42.486Z,17.05
2018-05-17T07:08:42.772Z,17.11
2018-05-17T07:09:42.534Z,17.14
2018-05-17T07:10:42.820Z,17.12
2018-05-17T07:11:42.559Z,17.12
2018-05-17T07:12:42.574Z,17.12
2018-05-17T07:13:42.904Z,17.19
2018-05-17T07:14:43.030Z,17.09
2018-05-17T07:15:42.915Z,17.19
2018-05-17T07:16:42.677Z,17.23
2018-05-17T07:17:42.683Z,17.12
2018-05-17T07:18:43.831Z,17.19
2018-05-17T07:19:42.461Z,17.12
2018-05-17T07:20:43.030Z,17.14
2018-05-17T07:21:43.051Z,17.15
2018-05-17T07:22:42.510Z,17.2
2018-05-17T07:23:43.067Z,17.19
2018-05-17T07:24:42.830Z,17.19
2018-05-17T07:25:42.854Z,17.23
2018-05-17T07:26:42.856Z,17.22
2018-05-17T07:27:43.176Z,17.2
2018-05-17T07:28:43.175Z,17.26
2018-05-17T07:29:43.208Z,17.19
2018-05-17T07:30:43.199Z,17.27
2018-05-17T07:31:43.243Z,17.26
2018-05-17T07:32:43.272Z,17.26
2018-05-17T07:33:43.110Z,17.26
2018-05-17T07:34:43.293Z,17.24
2018-05-17T07:35:43.322Z,17.3
2018-05-17T07:36:43.330Z,17.33
2018-05-17T07:37:43.357Z,17.33
2018-05-17T07:38:43.392Z,17.33
2018-05-17T07:39:43.383Z,17.39
2018-05-17T07:40:43.419Z,17.26
2018-05-17T07:41:43.531Z,17.29
2018-05-17T07:42:43.172Z,17.3
2018-05-17T07:43:43.205Z,17.31
2018-05-17T07:44:43.233Z,17.3
2018-05-17T07:45:43.520Z,17.34
2018-05-17T07:46:43.372Z,17.36
2018-05-17T07:47:43.018Z,17.39
2018-05-17T07:48:43.610Z,17.38
2018-05-17T07:49:43.339Z,17.34
2018-05-17T07:50:43.641Z,17.38
2018-05-17T07:51:43.639Z,17.39
2018-05-17T07:52:43.384Z,17.38
2018-05-17T07:53:43.658Z,17.38
2018-05-17T07:54:43.158Z,17.36
2018-05-17T07:55:44.007Z,17.39
2018-05-17T07:56:43.720Z,17.42
2018-05-17T07:57:43.843Z,17.42
2018-05-17T07:58:43.769Z,17.34
2018-05-17T07:59:43.262Z,17.38
2018-05-17T08:00:43.822Z,17.38
2018-05-17T08:01:43.949Z,17.34
2018-05-17T08:02:43.848Z,17.42
2018-05-17T08:03:43.345Z,17.39
2018-05-17T08:04:43.897Z,17.45
2018-05-17T08:05:43.633Z,17.46
2018-05-17T08:06:43.668Z,17.49
2018-05-17T08:07:43.954Z,17.49
2018-05-17T08:08:43.977Z,17.45
2018-05-17T08:09:43.978Z,17.38
2018-05-17T08:10:44.032Z,17.41
2018-05-17T08:11:44.042Z,17.49
2018-05-17T08:12:44.063Z,17.41
2018-05-17T08:13:44.085Z,17.48
2018-05-17T08:14:44.111Z,17.51
2018-05-17T08:15:44.124Z,17.54
2018-05-17T08:16:43.857Z,17.57
2018-05-17T08:17:44.139Z,17.51
2018-05-17T08:18:43.916Z,17.57
2018-05-17T08:19:43.935Z,17.49
2018-05-17T08:20:43.960Z,17.57
2018-05-17T08:21:43.989Z,17.54
2018-05-17T08:22:44.246Z,17.48
2018-05-17T08:23:44.012Z,17.46
2018-05-17T08:24:44.317Z,17.51
2018-05-17T08:25:44.058Z,17.6
2018-05-17T08:26:44.358Z,17.48
2018-05-17T08:27:44.358Z,17.49
2018-05-17T08:28:44.386Z,17.54
2018-05-17T08:29:44.378Z,17.64
2018-05-17T08:30:44.400Z,17.56
2018-05-17T08:31:44.434Z,17.72
2018-05-17T08:32:44.442Z,17.64
2018-05-17T08:33:43.946Z,17.64
2018-05-17T08:34:44.501Z,17.68
2018-05-17T08:35:44.506Z,17.59
2018-05-17T08:36:44.749Z,17.7
2018-05-17T08:37:44.567Z,17.67
2018-05-17T08:38:44.582Z,17.68
2018-05-17T08:39:44.595Z,17.72
2018-05-17T08:40:44.081Z,17.65
2018-05-17T08:41:44.363Z,17.71
2018-05-17T08:42:44.897Z,17.65
2018-05-17T08:43:44.699Z,17.74
2018-05-17T08:44:44.710Z,17.65
2018-05-17T08:45:44.622Z,17.72
2018-05-17T08:46:44.769Z,17.68
2018-05-17T08:47:44.749Z,17.67
2018-05-17T08:48:44.803Z,17.64
2018-05-17T08:49:44.801Z,17.71
2018-05-17T08:50:44.834Z,17.7
2018-05-17T08:51:44.837Z,17.8
2018-05-17T08:52:44.622Z,17.74
2018-05-17T08:53:44.617Z,17.74
2018-05-17T08:54:44.905Z,17.76
2018-05-17T08:55:44.942Z,17.8
2018-05-17T08:56:44.956Z,17.72
2018-05-17T08:57:44.714Z,17.8
2018-05-17T08:58:44.989Z,17.8
2018-05-17T08:59:45.132Z,17.83
2018-05-17T09:00:44.758Z,17.85
2018-05-17T09:01:45.035Z,17.85
2018-05-17T09:02:44.796Z,17.85
2018-05-17T09:03:45.113Z,17.89
2018-05-17T09:04:45.132Z,17.9
2018-05-17T09:05:44.877Z,17.87
2018-05-17T09:06:45.165Z,17.92
2018-05-17T09:07:44.900Z,17.92
2018-05-17T09:08:45.227Z,17.95
2018-05-17T09:09:45.196Z,18.05
2018-05-17T09:10:45.255Z,18.07
2018-05-17T09:11:45.273Z,17.97
2018-05-17T09:12:45.274Z,18
2018-05-17T09:13:45.484Z,18.1
2018-05-17T09:14:45.454Z,18.04
2018-05-17T09:15:45.052Z,18.04
2018-05-17T09:16:45.402Z,18.03
2018-05-17T09:17:45.467Z,18.07
2018-05-17T09:18:45.136Z,18.05
2018-05-17T09:19:45.153Z,18.11
2018-05-17T09:20:45.441Z,18.15
2018-05-17T09:21:45.458Z,18.1
2018-05-17T09:22:45.486Z,18.11
2018-05-17T09:23:45.506Z,18.16
2018-05-17T09:24:45.323Z,18.19
2018-05-17T09:25:45.275Z,18.18
2018-05-17T09:26:45.297Z,18.22
2018-05-17T09:27:45.595Z,18.25
2018-05-17T09:28:45.331Z,18.33
2018-05-17T09:29:45.079Z,18.23
2018-05-17T09:30:45.647Z,18.34
2018-05-17T09:31:45.399Z,18.33
2018-05-17T09:32:45.405Z,18.28
2018-05-17T09:33:45.704Z,18.33
2018-05-17T09:34:45.456Z,18.31
2018-05-17T09:35:45.977Z,18.37
2018-05-17T09:36:45.766Z,18.44
2018-05-17T09:37:45.511Z,18.37
2018-05-17T09:38:45.811Z,18.37
2018-05-17T09:39:45.847Z,18.47
2018-05-17T09:40:45.857Z,18.47
2018-05-17T09:41:45.593Z,18.5
2018-05-17T09:42:45.349Z,18.5
2018-05-17T09:43:45.911Z,18.49
2018-05-17T09:44:45.918Z,18.59
2018-05-17T09:45:45.934Z,18.59
2018-05-17T09:46:45.963Z,18.63
2018-05-17T09:47:45.882Z,18.58
2018-05-17T09:48:46.020Z,18.63
2018-05-17T09:49:46.048Z,18.63
2018-05-17T09:50:45.779Z,18.7
2018-05-17T09:51:46.086Z,18.71
2018-05-17T09:52:46.097Z,18.65
2018-05-17T09:53:46.100Z,18.71
2018-05-17T09:54:46.148Z,18.68
2018-05-17T09:55:46.155Z,18.7
2018-05-17T09:56:46.180Z,18.71
2018-05-17T09:57:45.923Z,18.78
2018-05-17T09:58:46.206Z,18.75
2018-05-17T09:59:45.985Z,18.77
2018-05-17T10:00:45.985Z,18.78
2018-05-17T10:01:46.288Z,18.84
2018-05-17T10:02:46.285Z,18.83
2018-05-17T10:03:46.344Z,18.9
2018-05-17T10:04:46.341Z,18.9
2018-05-17T10:05:46.432Z,18.99
2018-05-17T10:06:46.391Z,18.93
2018-05-17T10:07:46.396Z,19.02
2018-05-17T10:08:46.206Z,19.02
2018-05-17T10:09:46.195Z,19.16
2018-05-17T10:10:46.583Z,19.11
2018-05-17T10:11:46.492Z,19.15
2018-05-17T10:12:46.524Z,19.29
2018-05-17T10:13:46.600Z,19.27
2018-05-17T10:14:46.838Z,19.26
2018-05-17T10:15:46.597Z,19.33
2018-05-17T10:16:46.064Z,19.34
2018-05-17T10:17:46.618Z,19.44
2018-05-17T10:18:46.637Z,19.36
2018-05-17T10:19:46.653Z,19.34
2018-05-17T10:20:46.667Z,19.49
2018-05-17T10:21:46.461Z,19.56
2018-05-17T10:22:46.720Z,19.51
2018-05-17T10:23:46.756Z,19.69
2018-05-17T10:24:46.830Z,19.66
2018-05-17T10:25:46.842Z,19.52
2018-05-17T10:26:46.811Z,19.58
2018-05-17T10:27:46.572Z,19.64
2018-05-17T10:28:46.604Z,19.71
2018-05-17T10:29:46.599Z,19.69
2018-05-17T10:31:01.238Z,19.7
2018-05-17T10:31:46.673Z,19.84
2018-05-17T10:32:46.958Z,19.77
2018-05-17T10:33:46.952Z,19.88
2018-05-17T10:34:46.962Z,19.91
2018-05-17T10:35:46.740Z,20
2018-05-17T10:36:47.107Z,19.99
2018-05-17T10:37:47.034Z,20
2018-05-17T10:38:47.050Z,20.09
2018-05-17T10:39:47.110Z,20.11
2018-05-17T10:40:46.854Z,20.13
2018-05-17T10:41:47.130Z,20.13
2018-05-17T10:42:46.878Z,20.13
2018-05-17T10:43:47.265Z,20.14
2018-05-17T10:44:47.201Z,20.14
2018-05-17T10:45:46.940Z,20.31
2018-05-17T10:46:46.967Z,20.26
2018-05-17T10:47:47.265Z,20.37
2018-05-17T10:48:47.288Z,20.34
2018-05-17T10:49:47.308Z,20.37
2018-05-17T10:50:47.063Z,20.41
2018-05-17T10:51:47.349Z,20.5
2018-05-17T10:52:47.365Z,20.55
2018-05-17T10:53:47.393Z,20.55
2018-05-17T10:54:47.146Z,20.58
2018-05-17T10:55:47.432Z,20.62
2018-05-17T10:56:47.439Z,20.6
2018-05-17T10:57:47.495Z,20.7
2018-05-17T10:58:47.247Z,20.75
2018-05-17T10:59:47.517Z,20.75
2018-05-17T11:00:47.278Z,20.84
2018-05-17T11:01:47.314Z,20.85
2018-05-17T11:02:47.717Z,20.95
2018-05-17T11:03:47.349Z,21.02
2018-05-17T11:04:47.107Z,21.06
2018-05-17T11:05:47.649Z,21.11
2018-05-17T11:06:47.401Z,21.18
2018-05-17T11:07:47.678Z,21.21
2018-05-17T11:08:47.729Z,21.25
2018-05-17T11:09:47.746Z,21.3
2018-05-17T11:10:47.511Z,21.3
2018-05-17T11:11:47.792Z,21.37
2018-05-17T11:12:47.557Z,21.4
2018-05-17T11:13:47.559Z,21.39
2018-05-17T11:14:48.091Z,21.55
2018-05-17T11:15:47.880Z,21.58
2018-05-17T11:16:47.900Z,21.58
2018-05-17T11:17:47.909Z,21.72
2018-05-17T11:18:47.665Z,21.7
2018-05-17T11:19:47.963Z,21.76
2018-05-17T11:20:47.721Z,21.83
2018-05-17T11:21:48.007Z,21.79
2018-05-17T11:22:47.782Z,21.93
2018-05-17T11:23:47.789Z,21.95
2018-05-17T11:24:48.070Z,22
2018-05-17T11:25:48.149Z,21.99
2018-05-17T11:26:48.177Z,22
2018-05-17T11:27:48.183Z,22.11
2018-05-17T11:28:48.166Z,22.13
2018-05-17T11:29:48.190Z,22.23
2018-05-17T11:30:48.208Z,22.22
2018-05-17T11:31:48.239Z,22.3
2018-05-17T11:32:48.271Z,22.28
2018-05-17T11:33:48.294Z,22.28
2018-05-17T11:34:48.316Z,22.29
2018-05-17T11:35:48.071Z,22.23
2018-05-17T11:36:48.084Z,22.32
2018-05-17T11:37:48.090Z,22.33
2018-05-17T11:38:48.403Z,22.38
2018-05-17T11:39:48.424Z,22.36
2018-05-17T11:40:48.455Z,22.44
2018-05-17T11:41:48.464Z,22.43
2018-05-17T11:42:48.212Z,22.43
2018-05-17T11:43:47.983Z,22.57
2018-05-17T11:44:48.246Z,22.45
2018-05-17T11:45:48.554Z,22.53
2018-05-17T11:46:48.563Z,22.63
2018-05-17T11:47:48.349Z,22.6
2018-05-17T11:48:48.373Z,22.6
2018-05-17T11:49:48.645Z,22.62
2018-05-17T11:50:48.131Z,22.7
2018-05-17T11:51:48.416Z,22.68
2018-05-17T11:52:48.434Z,22.69
2018-05-17T11:53:48.485Z,22.75
2018-05-17T11:54:48.227Z,22.72
2018-05-17T11:55:48.526Z,22.84
2018-05-17T11:56:48.813Z,22.72
2018-05-17T11:57:48.857Z,22.84
2018-05-17T11:58:48.849Z,22.9
2018-05-17T11:59:48.340Z,22.96
2018-05-17T12:00:48.914Z,22.98
2018-05-17T12:01:48.921Z,23.05
2018-05-17T12:02:49.344Z,23.1
2018-05-17T12:03:48.972Z,23.09
2018-05-17T12:04:48.983Z,23.2
2018-05-17T12:05:49.016Z,23.21
2018-05-17T12:06:49.144Z,23.23
2018-05-17T12:07:48.816Z,23.39
2018-05-17T12:08:49.094Z,23.39
2018-05-17T12:09:49.144Z,23.4
2018-05-17T12:10:49.149Z,23.48
2018-05-17T12:11:49.166Z,23.56
2018-05-17T12:12:49.171Z,23.51
2018-05-17T12:13:49.191Z,23.62
2018-05-17T12:14:48.979Z,23.63
2018-05-17T12:15:49.276Z,23.59
2018-05-17T12:16:49.295Z,23.73
2018-05-17T12:17:49.319Z,23.74
2018-05-17T12:18:48.795Z,23.69
2018-05-17T12:19:49.374Z,23.73
2018-05-17T12:20:49.108Z,23.8
2018-05-17T12:21:49.199Z,23.77
2018-05-17T12:22:49.431Z,23.77
2018-05-17T12:23:49.449Z,23.78
2018-05-17T12:24:49.467Z,23.81
2018-05-17T12:25:49.502Z,23.92
2018-05-17T12:26:49.522Z,23.95
2018-05-17T12:27:49.544Z,24.1
2018-05-17T12:28:49.584Z,24.2
2018-05-17T12:29:49.601Z,24.26
2018-05-17T12:30:49.621Z,24.32
2018-05-17T12:31:49.951Z,24.5
2018-05-17T12:32:49.673Z,24.51
2018-05-17T12:33:49.423Z,24.57
2018-05-17T12:34:49.187Z,24.66
2018-05-17T12:35:49.207Z,24.86
2018-05-17T12:36:49.760Z,24.96
2018-05-17T12:37:49.532Z,25.1
2018-05-17T12:38:49.803Z,25.25
2018-05-17T12:39:49.857Z,25.36
2018-05-17T12:40:49.580Z,25.4
2018-05-17T12:41:49.907Z,25.53
2018-05-17T12:42:50.125Z,25.54
2018-05-17T12:43:49.936Z,25.6
2018-05-17T12:44:49.682Z,25.58
2018-05-17T12:45:49.992Z,25.54
2018-05-17T12:46:49.995Z,25.66
2018-05-17T12:47:50.056Z,25.54
2018-05-17T12:48:50.047Z,25.48
2018-05-17T12:49:50.084Z,25.54
2018-05-17T12:50:50.324Z,25.55
2018-05-17T12:51:49.859Z,25.5
2018-05-17T12:52:50.164Z,25.48
2018-05-17T12:53:50.183Z,25.48
2018-05-17T12:54:50.212Z,25.51
2018-05-17T12:55:50.233Z,25.5